Time;durP1;ratioP1;P1;durP2;ratioP2;P2;SDS_P1;SDS_P2;PMS_P1;PMS_P2;Temp;Humidity;BMP_temperature;BMP_pressure;BME280_temperature;BME280_humidity;BME280_pressure;Samples;Min_cycle;Max_cycle;Signal;HPM_P1;HPM_P2
2023/03/07 00:01:54;;;;;;;6.60;6.00;;;;;;;8.36;64.41;94264.72;5022646;28;20287;-62
2023/03/07 00:04:21;;;;;;;6.70;5.97;;;;;;;8.39;65.07;94267.97;5025896;28;20283;-60
2023/03/07 00:06:48;;;;;;;9.95;7.13;;;;;;;8.46;64.43;94259.22;5023242;28;20217;-60
2023/03/07 00:09:16;;;;;;;10.05;6.47;;;;;;;8.65;63.42;94254.28;5025954;28;20845;-65
2023/03/07 00:11:43;;;;;;;10.32;7.20;;;;;;;8.82;63.23;94261.22;5025711;28;20206;-63
2023/03/07 00:14:10;;;;;;;6.95;6.25;;;;;;;9.00;62.82;94257.13;5025933;28;20206;-60
2023/03/07 00:16:36;;;;;;;7.55;6.22;;;;;;;9.01;62.67;94256.25;5019505;28;21642;-62
2023/03/07 00:19:04;;;;;;;11.30;7.55;;;;;;;9.03;62.88;94257.81;5025120;28;20722;-62
2023/03/07 00:21:31;;;;;;;12.93;7.65;;;;;;;9.16;61.95;94245.47;5027076;28;20748;-64
2023/03/07 00:23:58;;;;;;;11.25;7.75;;;;;;;9.14;62.07;94242.19;5026104;28;20241;-64
2023/03/07 00:26:27;;;;;;;10.15;7.65;;;;;;;9.21;61.92;94230.91;5025044;28;20199;-64
2023/03/07 00:28:54;;;;;;;14.55;7.88;;;;;;;9.11;62.09;94247.38;5025618;28;20202;-64
2023/03/07 00:31:22;;;;;;;14.68;7.78;;;;;;;9.07;62.58;94234.00;5023304;28;20214;-59
2023/03/07 00:33:49;;;;;;;11.77;7.63;;;;;;;9.10;63.01;94240.66;5026492;28;20203;-65
2023/03/07 00:36:17;;;;;;;12.10;7.68;;;;;;;8.96;62.99;94232.78;5028258;28;20222;-64
2023/03/07 00:38:45;;;;;;;12.02;7.65;;;;;;;8.91;63.46;94234.72;5028197;28;20335;-62
2023/03/07 00:41:13;;;;;;;8.80;6.82;;;;;;;9.06;63.43;94223.94;5027303;28;20229;-61
2023/03/07 00:43:42;;;;;;;10.57;7.63;;;;;;;9.07;63.08;94234.00;5028774;28;20230;-63
2023/03/07 00:46:10;;;;;;;10.98;7.72;;;;;;;9.13;62.70;94225.34;5028964;28;20199;-58
2023/03/07 00:48:38;;;;;;;9.68;8.07;;;;;;;9.10;62.68;94228.00;5027378;28;20463;-62
2023/03/07 00:51:07;;;;;;;12.60;8.23;;;;;;;9.10;63.12;94225.47;5020808;28;20224;-66
2023/03/07 00:53:34;;;;;;;11.00;7.50;;;;;;;9.10;62.49;94220.41;5022284;28;20213;-63
2023/03/07 00:56:02;;;;;;;19.75;8.73;;;;;;;9.17;62.94;94216.69;5023962;28;20206;-65
2023/03/07 00:58:31;;;;;;;16.05;9.23;;;;;;;8.99;63.72;94225.06;5025104;28;20206;-59
2023/03/07 01:01:00;;;;;;;19.83;10.23;;;;;;;8.91;63.46;94224.56;5022129;28;20207;-61
2023/03/07 01:03:27;;;;;;;28.23;12.10;;;;;;;8.77;64.20;94225.94;5019933;28;20203;-63
2023/03/07 01:05:54;;;;;;;16.77;10.40;;;;;;;8.79;63.94;94231.75;5023131;28;21252;-62
2023/03/07 01:08:22;;;;;;;20.20;11.15;;;;;;;8.86;63.34;94217.16;5020309;28;20212;-63
2023/03/07 01:10:49;;;;;;;17.60;10.07;;;;;;;8.88;64.20;94215.38;5020498;28;20207;-60
2023/03/07 01:13:17;;;;;;;16.23;9.35;;;;;;;8.80;63.76;94209.78;5024745;28;20201;-61
2023/03/07 01:15:44;;;;;;;15.32;9.10;;;;;;;8.58;64.51;94201.41;5020089;28;20211;-59
2023/03/07 01:18:12;;;;;;;14.95;8.90;;;;;;;8.58;64.63;94197.16;5019895;28;20213;-64
2023/03/07 01:20:39;;;;;;;16.92;10.82;;;;;;;8.60;64.58;94190.34;5020497;28;20211;-63
2023/03/07 01:23:06;;;;;;;12.40;8.60;;;;;;;8.60;64.04;94189.50;5018921;28;20207;-62
2023/03/07 01:25:38;;;;;;;13.77;9.45;;;;;;;8.58;64.31;94196.34;5023653;28;20230;-59
2023/03/07 01:28:05;;;;;;;18.00;10.50;;;;;;;8.55;64.60;94189.69;5021164;28;20207;-59
2023/03/07 01:30:32;;;;;;;12.38;9.45;;;;;;;8.62;64.22;94187.75;5019828;28;20221;-59
2023/03/07 01:33:00;;;;;;;10.85;8.35;;;;;;;8.71;64.73;94195.78;5019475;28;20225;-64
2023/03/07 01:35:29;;;;;;;17.65;10.02;;;;;;;8.90;63.99;94185.75;5020854;28;21405;-62
2023/03/07 01:37:56;;;;;;;11.27;8.38;;;;;;;8.93;62.88;94182.22;5019553;28;20199;-63
2023/03/07 01:40:24;;;;;;;12.90;9.68;;;;;;;8.97;62.87;94193.91;5020099;28;20214;-61
2023/03/07 01:42:52;;;;;;;11.20;7.90;;;;;;;8.91;63.06;94194.16;5017015;28;20203;-61
2023/03/07 01:45:56;;;;;;;12.05;9.10;;;;;;;9.05;62.76;94187.63;5015163;28;20233;-60
2023/03/07 01:48:23;;;;;;;22.85;8.90;;;;;;;9.12;62.48;94189.03;5014807;28;20211;-61
2023/03/07 01:50:51;;;;;;;11.55;8.35;;;;;;;9.01;62.87;94170.06;5015043;28;20877;-61
2023/03/07 01:53:18;;;;;;;16.67;9.25;;;;;;;9.11;62.30;94192.44;5016904;28;20297;-64
2023/03/07 01:55:45;;;;;;;15.65;9.35;;;;;;;9.05;62.66;94196.94;5013758;28;20203;-61
2023/03/07 01:58:13;;;;;;;14.48;8.82;;;;;;;8.75;64.12;94189.72;5020188;28;20209;-61
2023/03/07 02:00:42;;;;;;;13.65;9.80;;;;;;;8.60;64.42;94170.06;5026575;28;20199;-65
2023/03/07 02:03:17;;;;;;;11.45;9.05;;;;;;;8.58;64.68;94192.09;5019579;28;20526;-59
2023/03/07 02:05:50;;;;;;;17.90;8.43;;;;;;;8.42;66.06;94175.84;5016479;28;20231;-59
2023/03/07 02:08:20;;;;;;;16.33;8.85;;;;;;;8.24;66.01;94174.00;5022656;28;21225;-60
2023/03/07 02:10:47;;;;;;;17.15;8.52;;;;;;;8.22;66.68;94188.44;5021991;28;20312;-60
2023/03/07 02:13:13;;;;;;;9.27;7.93;;;;;;;8.22;66.26;94196.03;5018648;28;21961;-61
2023/03/07 02:15:40;;;;;;;12.18;7.78;;;;;;;8.20;65.97;94186.78;5019571;28;20205;-65
2023/03/07 02:18:08;;;;;;;12.27;8.35;;;;;;;8.24;65.13;94167.25;5017001;28;20218;-63
2023/03/07 02:20:42;;;;;;;10.65;7.97;;;;;;;8.36;65.09;94176.09;5024777;28;20233;-62
2023/03/07 02:23:16;;;;;;;11.43;8.60;;;;;;;8.27;66.02;94171.34;5018016;28;20208;-61
2023/03/07 02:25:53;;;;;;;12.43;8.82;;;;;;;8.22;66.31;94185.91;5020087;28;20234;-61
2023/03/07 02:28:21;;;;;;;12.18;7.93;;;;;;;8.32;65.63;94182.13;5020718;28;20213;-61
2023/03/07 02:30:56;;;;;;;14.82;8.65;;;;;;;8.58;64.72;94171.03;5019957;28;20211;-63
2023/03/07 02:33:23;;;;;;;10.88;7.95;;;;;;;8.74;63.78;94177.94;5018873;28;20878;-61
2023/03/07 02:35:54;;;;;;;11.35;8.57;;;;;;;8.68;63.74;94188.28;5023385;28;20317;-59
2023/03/07 02:38:22;;;;;;;12.57;8.35;;;;;;;8.67;63.66;94194.25;5020477;28;20214;-64
2023/03/07 02:40:49;;;;;;;9.65;8.02;;;;;;;8.67;63.85;94181.59;5020285;28;20243;-63
2023/03/07 02:43:16;;;;;;;13.00;8.43;;;;;;;8.74;63.88;94193.13;5019008;28;23547;-62
2023/03/07 02:45:44;;;;;;;9.05;7.80;;;;;;;8.77;63.97;94192.19;5019535;28;20665;-61
2023/03/07 02:48:11;;;;;;;10.48;8.27;;;;;;;8.84;64.51;94191.88;5020995;28;20203;-62
2023/03/07 02:50:38;;;;;;;17.90;8.98;;;;;;;8.99;63.66;94197.19;5023234;28;20235;-60
2023/03/07 02:53:04;;;;;;;13.48;9.10;;;;;;;9.07;63.52;94187.56;5021351;28;20717;-60
2023/03/07 02:55:32;;;;;;;16.30;9.45;;;;;;;9.09;62.32;94188.34;5020285;28;20272;-61
2023/03/07 02:57:59;;;;;;;17.45;8.55;;;;;;;9.06;63.09;94184.22;5019782;28;20292;-65
2023/03/07 03:00:26;;;;;;;9.55;7.72;;;;;;;8.91;62.93;94189.91;5022913;28;20207;-63
2023/03/07 03:02:54;;;;;;;11.25;8.32;;;;;;;8.86;63.99;94197.72;5020941;28;20266;-64
2023/03/07 03:05:21;;;;;;;12.90;8.50;;;;;;;8.67;63.53;94186.66;5017580;28;20235;-65
2023/03/07 03:07:48;;;;;;;12.80;8.30;;;;;;;8.59;64.70;94196.28;5018542;28;20210;-63
2023/03/07 03:10:15;;;;;;;12.40;8.38;;;;;;;8.59;64.64;94193.75;5021985;28;20198;-63
2023/03/07 03:12:41;;;;;;;9.77;7.50;;;;;;;8.52;64.47;94195.69;5018744;28;20705;-64
2023/03/07 03:15:09;;;;;;;13.93;7.82;;;;;;;8.46;65.15;94185.78;5019298;28;20202;-63
2023/03/07 03:17:36;;;;;;;13.15;8.23;;;;;;;8.47;64.60;94187.44;5021430;28;20209;-63
2023/03/07 03:20:10;;;;;;;15.00;9.60;;;;;;;8.51;65.38;94193.22;5023959;28;20254;-63
2023/03/07 03:22:37;;;;;;;16.75;9.25;;;;;;;8.65;64.52;94178.31;5023359;28;20230;-64
2023/03/07 03:25:04;;;;;;;11.27;8.05;;;;;;;8.76;64.29;94171.09;5016576;28;20229;-64
2023/03/07 03:27:32;;;;;;;13.60;8.15;;;;;;;8.64;64.35;94176.66;5022005;28;20675;-63
2023/03/07 03:29:59;;;;;;;12.38;8.63;;;;;;;8.57;64.99;94195.50;5024018;28;20208;-63
2023/03/07 03:32:26;;;;;;;11.35;7.45;;;;;;;8.63;64.72;94185.16;5022093;28;20691;-61
2023/03/07 03:34:52;;;;;;;11.98;7.30;;;;;;;8.73;64.18;94186.41;5020190;28;20198;-61
2023/03/07 03:37:20;;;;;;;10.68;8.02;;;;;;;8.66;64.50;94200.19;5019666;28;20202;-60
2023/03/07 03:39:47;;;;;;;13.48;8.02;;;;;;;8.48;65.10;94193.34;5021596;28;20226;-62
2023/03/07 03:42:14;;;;;;;9.05;7.47;;;;;;;8.58;64.36;94192.09;5023390;28;20210;-62
2023/03/07 03:44:41;;;;;;;12.23;7.35;;;;;;;8.62;64.25;94180.97;5019468;28;20230;-62
2023/03/07 03:47:07;;;;;;;10.57;8.35;;;;;;;8.61;64.97;94189.44;5018527;28;20206;-64
2023/03/07 03:49:34;;;;;;;14.52;8.85;;;;;;;8.60;65.32;94199.63;5021748;28;20214;-63
2023/03/07 03:52:01;;;;;;;14.20;8.73;;;;;;;8.59;64.93;94183.63;5023776;28;20532;-61
2023/03/07 03:54:29;;;;;;;18.33;8.40;;;;;;;8.66;64.90;94195.13;5022116;28;20209;-63
2023/03/07 03:56:56;;;;;;;13.23;8.00;;;;;;;8.57;65.00;94203.13;5017954;28;20290;-65
2023/03/07 03:59:23;;;;;;;11.13;8.35;;;;;;;8.63;64.53;94190.22;5020738;28;20207;-64
2023/03/07 04:01:50;;;;;;;9.43;7.53;;;;;;;8.75;64.91;94187.16;5020228;28;21113;-60
2023/03/07 04:04:17;;;;;;;12.52;8.95;;;;;;;8.79;64.30;94196.31;5021035;28;20873;-60
2023/03/07 04:06:44;;;;;;;11.13;7.75;;;;;;;8.75;64.28;94184.63;5020243;28;20221;-65
2023/03/07 04:09:11;;;;;;;11.35;7.93;;;;;;;8.73;63.95;94191.47;5025256;28;20269;-63
2023/03/07 04:11:39;;;;;;;10.80;8.13;;;;;;;8.68;64.77;94188.28;5025685;28;20661;-64
2023/03/07 04:14:06;;;;;;;12.55;9.15;;;;;;;8.59;64.47;94193.75;5026380;28;20721;-63
2023/03/07 04:16:32;;;;;;;13.55;8.07;;;;;;;8.59;64.47;94193.75;5021258;28;20209;-61
2023/03/07 04:18:59;;;;;;;8.95;7.82;;;;;;;8.60;65.02;94195.41;5021943;28;20735;-60
2023/03/07 04:21:26;;;;;;;9.60;8.13;;;;;;;8.60;65.01;94200.47;5021708;28;20206;-60
2023/03/07 04:23:54;;;;;;;9.27;7.97;;;;;;;8.76;64.77;94203.19;5027821;28;21177;-62
2023/03/07 04:26:21;;;;;;;11.48;8.00;;;;;;;8.85;64.36;94201.13;5019904;28;20241;-63
2023/03/07 04:28:49;;;;;;;13.75;7.68;;;;;;;8.76;64.56;94211.63;5026833;28;23033;-63
2023/03/07 04:31:18;;;;;;;12.95;7.80;;;;;;;8.71;64.69;94207.63;5023859;28;20206;-61
2023/03/07 04:33:45;;;;;;;11.25;8.45;;;;;;;8.86;63.90;94212.09;5023922;28;20685;-58
2023/03/07 04:36:13;;;;;;;13.60;8.63;;;;;;;8.95;63.48;94221.81;5024999;28;20724;-64
2023/03/07 04:38:41;;;;;;;12.93;8.07;;;;;;;8.81;63.67;94212.25;5024393;28;20877;-63
2023/03/07 04:41:08;;;;;;;11.65;8.15;;;;;;;8.86;63.56;94222.22;5023610;28;20240;-63
2023/03/07 04:43:34;;;;;;;14.82;8.27;;;;;;;8.65;64.11;94218.84;5026247;28;20261;-61
2023/03/07 04:46:03;;;;;;;8.93;8.02;;;;;;;8.57;64.28;94223.38;5024910;28;20251;-66
2023/03/07 04:48:30;;;;;;;14.75;7.82;;;;;;;8.61;64.44;94231.69;5022198;28;20296;-62
2023/03/07 04:50:56;;;;;;;19.13;8.93;;;;;;;8.65;64.42;94218.00;5023446;28;20241;-62
2023/03/07 04:53:23;;;;;;;10.75;8.00;;;;;;;8.62;64.21;94215.59;5023504;28;20743;-62
2023/03/07 04:55:50;;;;;;;19.50;11.00;;;;;;;8.72;64.46;94222.75;5023556;28;20203;-62
2023/03/07 04:58:17;;;;;;;28.70;14.57;;;;;;;8.82;63.95;94226.59;5023703;28;20203;-62
2023/03/07 05:00:45;;;;;;;11.13;9.98;;;;;;;8.90;63.21;94217.84;5022121;28;20255;-64
2023/03/07 05:03:14;;;;;;;11.90;8.10;;;;;;;8.66;63.64;94205.25;5023422;28;20995;-60
2023/03/07 05:05:41;;;;;;;10.68;8.23;;;;;;;8.70;63.53;94222.00;5024657;28;20828;-59
2023/03/07 05:08:08;;;;;;;13.18;8.02;;;;;;;8.77;63.88;94228.47;5021797;28;20210;-61
2023/03/07 05:10:36;;;;;;;17.08;9.82;;;;;;;8.63;64.68;94223.13;5024921;28;20297;-63
2023/03/07 05:13:02;;;;;;;13.50;8.20;;;;;;;8.69;64.41;94220.34;5023085;28;21267;-64
2023/03/07 05:15:29;;;;;;;14.85;8.38;;;;;;;8.75;63.70;94225.16;5017981;28;20199;-62
2023/03/07 05:17:56;;;;;;;19.83;9.38;;;;;;;8.81;63.43;94212.25;5024270;28;20277;-61
2023/03/07 05:20:24;;;;;;;14.20;9.20;;;;;;;8.75;64.45;94215.03;5022195;28;20206;-60
2023/03/07 05:22:51;;;;;;;17.05;9.63;;;;;;;8.72;64.18;94215.16;5020802;28;20210;-64
2023/03/07 05:25:18;;;;;;;19.17;10.38;;;;;;;8.66;64.37;94225.53;5024832;28;20225;-63
2023/03/07 05:27:44;;;;;;;16.42;10.15;;;;;;;8.76;64.44;94219.22;5022174;28;20206;-60
2023/03/07 05:30:12;;;;;;;13.35;9.98;;;;;;;8.96;64.28;94225.19;5025319;28;20198;-63
2023/03/07 05:32:40;;;;;;;14.35;9.85;;;;;;;8.73;63.73;94226.94;5019687;28;20298;-61
2023/03/07 05:35:08;;;;;;;19.52;10.00;;;;;;;8.67;64.19;94224.63;5023002;28;20216;-63
2023/03/07 05:37:36;;;;;;;16.52;10.45;;;;;;;8.68;64.76;94223.75;5022965;28;20242;-63
2023/03/07 05:40:08;;;;;;;19.17;10.93;;;;;;;8.53;65.52;94229.44;5021561;28;20308;-62
2023/03/07 05:42:35;;;;;;;13.55;10.25;;;;;;;8.56;65.39;94236.91;5022937;28;20207;-61
2023/03/07 05:45:01;;;;;;;20.75;12.00;;;;;;;8.56;66.08;94248.75;5023708;28;20558;-63
2023/03/07 05:47:30;;;;;;;13.35;10.48;;;;;;;8.79;65.57;94259.63;5024261;28;20217;-59
2023/03/07 05:49:56;;;;;;;17.65;11.63;;;;;;;8.93;65.13;94237.97;5023799;28;20230;-62
2023/03/07 05:52:23;;;;;;;12.90;9.65;;;;;;;8.63;65.48;94240.88;5024512;28;20203;-63
2023/03/07 05:54:51;;;;;;;17.67;9.95;;;;;;;8.48;66.76;94251.56;5020757;28;20211;-60
2023/03/07 05:57:18;;;;;;;16.60;11.50;;;;;;;8.60;66.77;94242.69;5023430;28;20203;-65
2023/03/07 05:59:45;;;;;;;19.17;11.27;;;;;;;8.53;66.60;94247.16;5022197;28;20214;-62
2023/03/07 06:02:12;;;;;;;24.67;10.85;;;;;;;8.54;67.34;94251.34;5022148;28;20203;-61
2023/03/07 06:04:38;;;;;;;17.05;10.68;;;;;;;8.65;66.31;94246.69;5021282;28;20242;-61
2023/03/07 06:07:05;;;;;;;17.38;11.23;;;;;;;8.98;65.88;94247.03;5021715;28;20305;-66
2023/03/07 06:09:32;;;;;;;15.27;9.80;;;;;;;9.17;65.18;94254.72;5022173;28;20214;-59
2023/03/07 06:12:00;;;;;;;14.65;9.98;;;;;;;9.12;64.56;94249.03;5025357;28;20638;-62
2023/03/07 06:14:26;;;;;;;16.48;9.70;;;;;;;9.31;64.45;94244.84;5022149;28;20208;-59
2023/03/07 06:16:53;;;;;;;19.45;11.73;;;;;;;9.41;64.12;94251.16;5020943;28;22015;-59
2023/03/07 06:19:20;;;;;;;21.10;11.35;;;;;;;9.85;63.07;94241.69;5020444;28;20694;-61
2023/03/07 06:21:47;;;;;;;21.63;11.30;;;;;;;10.33;61.56;94242.13;5023547;28;20275;-60
2023/03/07 06:24:13;;;;;;;20.27;10.60;;;;;;;10.35;60.50;94235.25;5021380;28;20272;-62
2023/03/07 06:26:40;;;;;;;13.50;10.85;;;;;;;10.28;60.66;94249.13;5022866;28;20230;-61
2023/03/07 06:29:08;;;;;;;12.25;10.15;;;;;;;10.35;60.92;94258.13;5022569;28;20207;-64
2023/03/07 06:31:35;;;;;;;16.40;10.27;;;;;;;10.67;59.84;94249.81;5021838;28;20283;-61
2023/03/07 06:34:01;;;;;;;16.85;11.57;;;;;;;11.00;58.62;94257.56;5020155;28;20211;-60
2023/03/07 06:36:28;;;;;;;20.13;10.75;;;;;;;11.49;57.84;94253.44;5027261;28;20202;-63
2023/03/07 06:38:55;;;;;;;17.55;10.57;;;;;;;11.80;56.32;94254.47;5021737;28;20685;-63
2023/03/07 06:41:22;;;;;;;15.70;10.40;;;;;;;11.60;56.64;94258.00;5016656;28;20230;-60
2023/03/07 06:43:51;;;;;;;14.57;9.95;;;;;;;11.33;57.55;94279.72;5020443;28;20248;-62
2023/03/07 06:46:20;;;;;;;17.83;9.52;;;;;;;11.02;58.62;94270.22;5018882;28;20233;-60
2023/03/07 06:48:47;;;;;;;14.00;9.38;;;;;;;10.99;58.57;94283.06;5023907;28;20675;-61
2023/03/07 06:51:14;;;;;;;17.90;9.68;;;;;;;10.64;59.47;94277.91;5018540;28;20245;-61
2023/03/07 06:53:41;;;;;;;18.33;10.48;;;;;;;10.62;59.89;94284.81;5018754;28;20751;-62
2023/03/07 06:56:07;;;;;;;20.90;9.57;;;;;;;10.95;59.06;94279.84;5018048;28;20203;-63
2023/03/07 06:58:34;;;;;;;24.30;9.55;;;;;;;11.32;57.79;94268.72;5018849;28;20267;-64
2023/03/07 07:01:01;;;;;;;15.50;10.13;;;;;;;11.71;56.98;94275.28;5019620;28;20730;-65
2023/03/07 07:03:29;;;;;;;17.15;8.90;;;;;;;12.11;55.73;94264.75;5022733;28;20628;-64
2023/03/07 07:05:55;;;;;;;15.73;9.38;;;;;;;12.85;54.92;94267.53;5019099;28;21404;-62
2023/03/07 07:08:22;;;;;;;11.70;9.40;;;;;;;13.76;52.04;94253.03;5018560;28;20206;-62
2023/03/07 07:10:49;;;;;;;16.95;11.18;;;;;;;14.39;49.35;94256.03;5017244;28;20207;-62
2023/03/07 07:13:16;;;;;;;17.02;9.52;;;;;;;15.27;47.47;94247.09;5020655;28;20216;-62
2023/03/07 07:15:42;;;;;;;13.73;9.32;;;;;;;16.14;45.85;94244.69;5019544;28;20214;-63
2023/03/07 07:18:12;;;;;;;16.02;9.27;;;;;;;16.22;44.14;94252.69;5019758;28;20211;-63
2023/03/07 07:20:40;;;;;;;17.63;10.20;;;;;;;16.28;44.72;94247.16;5019813;28;20209;-63
2023/03/07 07:23:07;;;;;;;13.85;10.52;;;;;;;17.09;42.83;94250.91;5019180;28;20209;-60
2023/03/07 07:25:34;;;;;;;11.27;9.93;;;;;;;17.42;41.63;94250.22;5023046;28;20336;-63
2023/03/07 07:28:01;;;;;;;12.98;8.52;;;;;;;16.67;42.56;94256.41;5020376;28;20265;-62
2023/03/07 07:30:27;;;;;;;11.65;8.38;;;;;;;16.10;43.72;94257.81;5021335;28;20206;-64
2023/03/07 07:32:54;;;;;;;13.23;9.55;;;;;;;15.62;44.74;94263.56;5020846;28;20215;-62
2023/03/07 07:35:21;;;;;;;13.45;8.52;;;;;;;14.93;46.12;94269.72;5024859;28;20578;-63
2023/03/07 07:37:49;;;;;;;14.93;9.80;;;;;;;14.75;46.78;94270.88;5021621;28;20203;-64
2023/03/07 07:40:16;;;;;;;13.85;9.60;;;;;;;14.05;48.34;94275.13;5020148;28;20751;-59
2023/03/07 07:42:43;;;;;;;12.80;9.50;;;;;;;13.35;50.47;94274.13;5018787;28;20211;-60
2023/03/07 07:45:10;;;;;;;20.00;9.35;;;;;;;12.85;52.14;94272.66;5017181;28;20210;-64
2023/03/07 07:47:37;;;;;;;12.63;8.73;;;;;;;12.45;53.50;94275.69;5021482;28;20229;-63
2023/03/07 07:50:04;;;;;;;11.95;8.52;;;;;;;12.22;54.63;94280.28;5019128;28;20643;-63
2023/03/07 07:52:31;;;;;;;17.33;11.02;;;;;;;12.05;55.00;94277.78;5020255;28;20675;-60
2023/03/07 07:54:59;;;;;;;9.50;7.30;;;;;;;11.97;55.22;94268.88;5021230;28;20264;-60
2023/03/07 07:57:26;;;;;;;13.98;8.40;;;;;;;12.06;55.47;94279.44;5019130;28;20198;-64
2023/03/07 07:59:53;;;;;;;9.50;8.52;;;;;;;12.33;54.60;94274.63;5023450;28;20258;-61
2023/03/07 08:02:19;;;;;;;9.75;8.75;;;;;;;12.50;53.91;94273.72;5021196;28;21729;-64
2023/03/07 08:04:46;;;;;;;12.05;8.65;;;;;;;12.31;55.01;94278.16;5018400;28;20202;-62
2023/03/07 08:07:14;;;;;;;16.30;9.00;;;;;;;12.43;54.46;94282.59;5018559;28;20229;-62
2023/03/07 08:09:40;;;;;;;16.90;9.05;;;;;;;12.45;54.25;94289.25;5020606;28;20214;-64
2023/03/07 08:12:11;;;;;;;16.00;8.48;;;;;;;12.68;53.97;94288.00;5018836;28;20789;-64
2023/03/07 08:14:38;;;;;;;12.93;8.45;;;;;;;13.61;51.53;94281.09;5018910;28;20305;-61
2023/03/07 08:17:05;;;;;;;10.13;7.72;;;;;;;15.58;46.48;94272.38;5023169;28;20217;-60
2023/03/07 08:19:32;;;;;;;10.73;8.90;;;;;;;16.76;43.32;94280.59;5015671;28;20202;-63
2023/03/07 08:21:58;;;;;;;13.32;7.85;;;;;;;16.94;42.28;94281.88;5019146;28;20245;-61
2023/03/07 08:24:26;;;;;;;12.13;8.65;;;;;;;18.29;39.58;94271.09;5018597;28;20223;-63
2023/03/07 08:26:52;;;;;;;13.05;8.48;;;;;;;18.35;39.04;94268.03;5013574;28;20789;-65
2023/03/07 08:29:20;;;;;;;14.65;7.75;;;;;;;17.64;40.71;94266.53;5023036;28;20214;-65
2023/03/07 08:31:50;;;;;;;15.43;8.15;;;;;;;17.21;41.88;94273.13;5015891;28;20215;-62
2023/03/07 08:34:17;;;;;;;22.02;9.52;;;;;;;17.11;41.99;94279.84;5015865;28;20243;-63
2023/03/07 08:36:44;;;;;;;13.35;8.35;;;;;;;16.73;42.48;94270.56;5020065;28;20629;-62
2023/03/07 08:39:11;;;;;;;15.68;8.80;;;;;;;16.48;43.17;94273.16;5022944;28;20718;-66
2023/03/07 08:41:38;;;;;;;15.07;8.77;;;;;;;16.31;43.45;94272.59;5018813;28;20216;-65
2023/03/07 08:44:05;;;;;;;13.13;8.73;;;;;;;16.36;44.01;94268.84;5019746;28;20304;-63
2023/03/07 08:46:33;;;;;;;15.57;10.18;;;;;;;16.29;43.81;94264.16;5021137;28;21235;-67
2023/03/07 08:49:00;;;;;;;14.48;9.60;;;;;;;16.36;43.99;94268.84;5021637;28;20211;-61
2023/03/07 08:51:27;;;;;;;15.07;9.00;;;;;;;16.39;43.72;94271.22;5019546;28;20242;-63
2023/03/07 08:53:54;;;;;;;15.15;11.40;;;;;;;16.26;44.06;94269.50;5020617;28;20193;-65
2023/03/07 08:56:20;;;;;;;16.05;10.95;;;;;;;16.10;44.41;94263.75;5022279;28;21631;-65
2023/03/07 08:58:47;;;;;;;11.57;9.13;;;;;;;16.15;44.24;94266.03;5026061;28;20209;-64
2023/03/07 09:01:14;;;;;;;9.82;8.63;;;;;;;16.02;43.87;94260.91;5025350;28;20676;-61
2023/03/07 09:03:42;;;;;;;12.82;7.43;;;;;;;15.87;43.94;94264.50;5022218;28;20211;-60
2023/03/07 09:06:16;;;;;;;15.70;8.40;;;;;;;15.75;43.88;94262.75;5025969;28;20260;-59
2023/03/07 09:08:43;;;;;;;10.70;7.68;;;;;;;15.83;43.73;94265.63;5023951;28;20210;-63
2023/03/07 09:11:10;;;;;;;14.38;8.27;;;;;;;16.42;43.04;94258.19;5023174;28;20207;-61
2023/03/07 09:13:38;;;;;;;13.70;7.78;;;;;;;16.96;41.91;94262.06;5020321;28;20651;-62
2023/03/07 09:16:05;;;;;;;18.42;7.53;;;;;;;17.34;40.90;94253.34;5019192;28;20580;-64
2023/03/07 09:18:32;;;;;;;12.95;8.57;;;;;;;17.45;40.28;94250.81;5020052;28;20209;-60
2023/03/07 09:21:00;;;;;;;9.30;7.50;;;;;;;17.72;40.28;94257.47;5024401;28;20203;-60
2023/03/07 09:23:27;;;;;;;11.77;7.95;;;;;;;18.33;38.99;94249.31;5024844;28;20201;-63
2023/03/07 09:25:54;;;;;;;14.88;7.15;;;;;;;18.14;38.02;94249.09;5021024;28;20203;-63
2023/03/07 09:28:21;;;;;;;10.15;7.13;;;;;;;17.71;38.56;94246.34;5021052;28;20221;-61
2023/03/07 09:30:47;;;;;;;6.88;5.65;;;;;;;17.24;38.95;94239.53;5023331;28;20267;-60
2023/03/07 09:33:14;;;;;;;7.78;7.15;;;;;;;17.22;39.43;94238.84;5025135;28;20210;-60
2023/03/07 09:35:41;;;;;;;9.45;6.25;;;;;;;17.08;39.38;94236.41;5021506;28;20202;-63
2023/03/07 09:38:09;;;;;;;10.35;6.78;;;;;;;17.09;38.72;94235.50;5023011;28;20719;-63
2023/03/07 09:40:38;;;;;;;12.80;5.45;;;;;;;17.24;38.62;94226.69;5022852;28;20241;-60
2023/03/07 09:43:16;;;;;;;7.15;5.85;;;;;;;17.24;38.38;94226.69;5023925;28;20207;-62
2023/03/07 09:45:53;;;;;;;8.00;5.70;;;;;;;17.26;38.01;94214.56;5025648;28;20211;-63
2023/03/07 09:48:42;;;;;;;7.82;5.68;;;;;;;17.46;38.51;94219.06;5018945;28;20234;-60
2023/03/07 09:51:16;;;;;;;10.65;5.40;;;;;;;17.66;37.74;94217.63;5023584;28;20238;-62
2023/03/07 09:53:47;;;;;;;6.43;5.40;;;;;;;17.79;37.91;94217.53;5024868;28;20206;-62
2023/03/07 09:56:19;;;;;;;15.57;5.25;;;;;;;17.76;36.61;94207.47;5020436;28;20452;-63
2023/03/07 09:58:51;;;;;;;5.25;4.70;;;;;;;17.62;37.33;94211.03;5025162;28;20210;-60
2023/03/07 10:01:23;;;;;;;6.13;5.47;;;;;;;17.54;37.28;94197.94;5019491;28;20612;-62
2023/03/07 10:03:55;;;;;;;5.43;4.93;;;;;;;17.64;38.07;94201.47;5021417;28;20206;-63
2023/03/07 10:06:29;;;;;;;8.70;5.20;;;;;;;17.88;36.74;94193.69;5021126;28;20675;-60
2023/03/07 10:08:59;;;;;;;9.85;5.07;;;;;;;17.85;36.97;94186.19;5015345;28;20358;-64
2023/03/07 10:11:37;;;;;;;5.03;4.60;;;;;;;17.75;36.98;94198.13;5021128;28;20214;-63
2023/03/07 10:14:20;;;;;;;4.95;3.40;;;;;;;17.80;36.15;94189.16;5020369;28;20247;-61
2023/03/07 10:16:51;;;;;;;3.03;2.83;;;;;;;17.71;34.37;94176.16;5021836;28;20265;-59
2023/03/07 10:19:31;;;;;;;3.65;3.10;;;;;;;17.77;34.57;94178.28;5018825;28;20222;-63
2023/03/07 10:22:05;;;;;;;3.25;2.90;;;;;;;17.98;35.21;94176.63;5022741;28;20704;-63
2023/03/07 10:24:51;;;;;;;2.72;2.60;;;;;;;18.42;34.19;94169.81;5021009;28;20258;-61
2023/03/07 10:27:23;;;;;;;2.53;2.33;;;;;;;18.68;33.42;94160.88;5014227;28;20626;-60
2023/03/07 10:29:52;;;;;;;1.92;1.52;;;;;;;18.93;33.03;94155.41;5021566;28;20652;-65
2023/03/07 10:32:25;;;;;;;8.15;4.40;;;;;;;18.83;33.81;94159.66;5022241;28;20229;-63
2023/03/07 10:34:58;;;;;;;5.63;3.67;;;;;;;18.89;34.58;94158.34;5018938;28;20203;-63
2023/03/07 10:37:37;;;;;;;4.38;2.78;;;;;;;18.65;32.83;94155.97;5018856;28;20202;-62
2023/03/07 10:40:09;;;;;;;8.43;4.13;;;;;;;18.12;33.60;94155.00;5023336;28;20234;-64
2023/03/07 10:42:38;;;;;;;4.70;3.70;;;;;;;17.72;34.79;94152.09;5015498;28;20203;-62
2023/03/07 10:45:06;;;;;;;5.13;3.45;;;;;;;17.88;34.90;94147.41;5015098;28;20632;-62
2023/03/07 10:47:32;;;;;;;4.85;2.97;;;;;;;18.09;34.46;94135.47;5019515;28;20596;-62
2023/03/07 10:50:14;;;;;;;3.30;2.50;;;;;;;18.17;33.64;94128.00;5025469;28;20242;-65
2023/03/07 10:52:47;;;;;;;3.20;2.53;;;;;;;18.15;33.16;94123.91;5014767;28;20688;-66
2023/03/07 10:55:32;;;;;;;3.92;3.10;;;;;;;17.06;34.84;94125.38;5020252;28;21730;-62
2023/03/07 10:58:13;;;;;;;6.80;3.22;;;;;;;17.06;35.18;94122.81;5019455;28;20199;-65
2023/03/07 11:00:40;;;;;;;2.88;2.58;;;;;;;16.97;35.14;94122.53;5019764;28;20231;-64
2023/03/07 11:03:22;;;;;;;3.10;2.80;;;;;;;16.58;35.57;94115.16;5017584;28;20211;-62
2023/03/07 11:05:49;;;;;;;3.22;2.95;;;;;;;16.63;35.83;94111.31;5000613;28;20207;-62
2023/03/07 11:08:25;;;;;;;3.75;2.85;;;;;;;16.69;35.87;94112.63;5019942;28;20250;-62
2023/03/07 11:10:54;;;;;;;4.68;2.85;;;;;;;16.95;35.45;94109.00;5021024;28;20218;-64
2023/03/07 11:13:22;;;;;;;4.78;3.08;;;;;;;17.24;34.31;94104.28;5019601;28;20203;-62
2023/03/07 11:15:49;;;;;;;3.42;2.53;;;;;;;17.40;34.14;94088.53;5023229;28;20221;-62
2023/03/07 11:18:27;;;;;;;1.88;1.77;;;;;;;17.50;33.45;94088.66;5021111;28;20583;-62
2023/03/07 11:20:54;;;;;;;2.00;1.83;;;;;;;17.40;33.55;94083.38;5023402;28;20210;-65
2023/03/07 11:23:23;;;;;;;1.98;1.80;;;;;;;17.58;32.99;94079.41;5022470;28;20264;-62
2023/03/07 11:25:50;;;;;;;3.90;1.88;;;;;;;17.74;32.94;94073.16;5020295;28;20598;-65
2023/03/07 11:28:30;;;;;;;3.28;1.92;;;;;;;17.85;32.72;94073.13;5017586;28;20227;-63
2023/03/07 11:31:12;;;;;;;2.83;2.45;;;;;;;17.76;33.09;94071.28;5019433;28;20207;-63
2023/03/07 11:33:53;;;;;;;9.68;2.53;;;;;;;17.42;33.89;94066.13;5024120;28;20241;-64
2023/03/07 11:36:26;;;;;;;2.33;2.13;;;;;;;17.44;34.29;94074.53;5023772;28;20670;-63
2023/03/07 11:39:02;;;;;;;2.60;2.40;;;;;;;17.55;34.28;94066.84;5024251;28;20210;-62